Time;durP1;ratioP1;P1;durP2;ratioP2;P2;SDS_P1;SDS_P2;PMS_P1;PMS_P2;Temp;Humidity;BMP_temperature;BMP_pressure;BME280_temperature;BME280_humidity;BME280_pressure;Samples;Min_cycle;Max_cycle;Signal;HPM_P1;HPM_P2
2021/10/08 00:01:56;;;;;;;25.23;12.55;;;;;;;;;;5076936;28;20074;-57
2021/10/08 00:04:22;;;;;;;33.15;12.90;;;;;;;;;;5079904;28;20114;-57
2021/10/08 00:06:49;;;;;;;32.30;14.18;;;;;;;;;;5089434;28;20043;-58
2021/10/08 00:09:15;;;;;;;33.40;13.50;;;;;;;;;;5083347;28;20044;-57
2021/10/08 00:11:42;;;;;;;32.20;13.88;;;;;;;;;;5080737;28;20044;-57
2021/10/08 00:14:08;;;;;;;37.75;13.63;;;;;;;;;;5078051;28;20090;-58
2021/10/08 00:16:35;;;;;;;35.53;13.32;;;;;;;;;;5078009;28;20048;-57
2021/10/08 00:19:01;;;;;;;32.55;13.02;;;;;;;;;;5091122;28;20463;-57
2021/10/08 00:21:30;;;;;;;30.45;12.48;;;;;;;;;;5082984;28;20551;-58
2021/10/08 00:23:56;;;;;;;29.75;13.48;;;;;;;;;;5081878;28;20097;-58
2021/10/08 00:26:23;;;;;;;34.10;13.38;;;;;;;;;;5079811;28;20107;-58
2021/10/08 00:28:49;;;;;;;38.53;12.82;;;;;;;;;;5076141;28;20036;-56
2021/10/08 00:31:16;;;;;;;29.58;11.60;;;;;;;;;;5089728;28;20487;-57
2021/10/08 00:33:42;;;;;;;24.42;11.73;;;;;;;;;;5081015;28;20133;-57
2021/10/08 00:36:09;;;;;;;28.25;12.05;;;;;;;;;;5080175;28;20044;-57
2021/10/08 00:38:36;;;;;;;21.40;10.40;;;;;;;;;;5086179;28;20492;-57
2021/10/08 00:41:05;;;;;;;19.67;10.23;;;;;;;;;;5092040;28;20090;-57
2021/10/08 00:43:31;;;;;;;19.95;9.90;;;;;;;;;;5077738;28;20056;-57
2021/10/08 00:45:57;;;;;;;18.40;9.85;;;;;;;;;;5087389;28;20043;-57
2021/10/08 00:48:24;;;;;;;20.38;9.70;;;;;;;;;;5083292;28;20075;-58
2021/10/08 00:50:51;;;;;;;19.23;8.63;;;;;;;;;;5078119;28;20036;-57
2021/10/08 00:53:18;;;;;;;20.45;8.70;;;;;;;;;;5090159;28;20113;-58
2021/10/08 00:55:46;;;;;;;21.58;9.38;;;;;;;;;;5076610;28;20067;-57
2021/10/08 00:58:14;;;;;;;22.40;8.48;;;;;;;;;;5090729;28;20072;-57
2021/10/08 01:00:41;;;;;;;23.42;9.27;;;;;;;;;;5086049;28;20086;-57
2021/10/08 01:03:08;;;;;;;17.13;8.30;;;;;;;;;;5085623;28;20099;-57
2021/10/08 01:05:34;;;;;;;20.13;9.32;;;;;;;;;;5079381;28;20044;-57
2021/10/08 01:08:00;;;;;;;22.48;9.93;;;;;;;;;;5082160;28;20526;-57
2021/10/08 01:10:27;;;;;;;19.45;8.93;;;;;;;;;;5076732;28;20496;-57
2021/10/08 01:12:53;;;;;;;19.08;9.88;;;;;;;;;;5086842;28;20040;-58
2021/10/08 01:15:21;;;;;;;26.33;10.43;;;;;;;;;;5082494;28;20125;-57
2021/10/08 01:17:53;;;;;;;22.40;8.27;;;;;;;;;;5079021;28;20098;-57
2021/10/08 01:20:20;;;;;;;17.00;8.35;;;;;;;;;;5075864;28;20118;-57
2021/10/08 01:22:53;;;;;;;18.20;7.95;;;;;;;;;;5090342;28;20052;-57
2021/10/08 01:25:20;;;;;;;15.20;7.97;;;;;;;;;;5089330;28;20093;-57
2021/10/08 01:27:47;;;;;;;17.80;8.23;;;;;;;;;;5085533;28;20051;-57
2021/10/08 01:30:25;;;;;;;27.33;8.43;;;;;;;;;;5085379;28;20507;-57
2021/10/08 01:32:51;;;;;;;21.48;8.75;;;;;;;;;;5086416;28;20047;-57
2021/10/08 01:35:19;;;;;;;14.45;7.70;;;;;;;;;;5075180;28;20042;-57
2021/10/08 01:37:48;;;;;;;17.15;7.55;;;;;;;;;;5089339;28;20044;-57
2021/10/08 01:40:15;;;;;;;18.15;8.18;;;;;;;;;;5088092;28;20051;-57
2021/10/08 01:42:46;;;;;;;16.77;8.13;;;;;;;;;;5085144;28;20052;-57
2021/10/08 01:45:15;;;;;;;18.60;8.75;;;;;;;;;;5083078;28;20102;-57
2021/10/08 01:47:42;;;;;;;16.88;7.50;;;;;;;;;;5078326;28;20078;-57
2021/10/08 01:50:10;;;;;;;17.50;7.50;;;;;;;;;;5076135;28;20123;-57
2021/10/08 01:52:40;;;;;;;21.45;7.57;;;;;;;;;;5074682;28;20052;-56
2021/10/08 01:55:07;;;;;;;13.82;7.50;;;;;;;;;;5086585;28;20059;-57
2021/10/08 01:57:36;;;;;;;16.50;7.28;;;;;;;;;;5088688;28;20503;-56
2021/10/08 02:00:05;;;;;;;18.48;7.75;;;;;;;;;;5088918;28;20080;-56
2021/10/08 02:02:39;;;;;;;14.38;6.75;;;;;;;;;;5088489;28;20488;-58
2021/10/08 02:05:14;;;;;;;;;;;;;;;;;;5075696;28;20082;-57
2021/10/08 02:07:42;;;;;;;15.73;5.38;;;;;;;;;;5073580;28;19920;-57
2021/10/08 02:10:10;;;;;;;12.07;5.97;;;;;;;;;;5082258;28;20044;-56
2021/10/08 02:12:37;;;;;;;14.65;6.65;;;;;;;;;;5078222;28;20075;-57
2021/10/08 02:15:04;;;;;;;18.45;5.97;;;;;;;;;;5074313;28;20067;-57
2021/10/08 02:17:32;;;;;;;15.10;5.63;;;;;;;;;;5077684;28;20048;-57
2021/10/08 02:19:59;;;;;;;13.27;5.72;;;;;;;;;;5073675;28;20084;-57
2021/10/08 02:22:25;;;;;;;13.80;6.88;;;;;;;;;;5075563;28;20048;-57
2021/10/08 02:24:53;;;;;;;10.80;5.95;;;;;;;;;;5085000;28;20073;-57
2021/10/08 02:27:20;;;;;;;9.80;5.43;;;;;;;;;;5079965;28;20048;-58
2021/10/08 02:29:47;;;;;;;13.18;6.20;;;;;;;;;;5077418;28;20501;-57
2021/10/08 02:32:16;;;;;;;16.50;6.10;;;;;;;;;;5077586;28;20044;-57
2021/10/08 02:34:42;;;;;;;14.98;6.47;;;;;;;;;;5073456;28;20091;-57
2021/10/08 02:37:08;;;;;;;16.00;6.05;;;;;;;;;;5086140;28;20044;-57
2021/10/08 02:39:36;;;;;;;16.50;5.93;;;;;;;;;;5083902;28;20465;-57
2021/10/08 02:42:05;;;;;;;19.85;5.88;;;;;;;;;;5083480;28;20068;-58
2021/10/08 02:44:32;;;;;;;12.23;5.82;;;;;;;;;;5083274;28;20041;-58
2021/10/08 02:46:59;;;;;;;11.68;6.28;;;;;;;;;;5088474;28;20105;-57
2021/10/08 02:49:25;;;;;;;10.68;5.68;;;;;;;;;;5076287;28;20076;-57
2021/10/08 02:51:52;;;;;;;15.60;5.95;;;;;;;;;;5072556;28;20048;-57
2021/10/08 02:54:19;;;;;;;17.83;5.57;;;;;;;;;;5080055;28;20389;-57
2021/10/08 02:56:45;;;;;;;17.05;5.93;;;;;;;;;;5083703;28;20040;-57
2021/10/08 02:59:12;;;;;;;13.70;6.35;;;;;;;;;;5088131;28;20515;-57
2021/10/08 03:01:38;;;;;;;16.75;6.85;;;;;;;;;;5074933;28;20059;-57
2021/10/08 03:04:05;;;;;;;17.55;7.38;;;;;;;;;;5078032;28;20136;-57
2021/10/08 03:06:32;;;;;;;15.75;6.25;;;;;;;;;;5077426;28;20083;-57
2021/10/08 03:09:02;;;;;;;16.38;6.68;;;;;;;;;;5074167;28;20056;-57
2021/10/08 03:11:29;;;;;;;14.57;6.32;;;;;;;;;;5080686;28;20044;-56
2021/10/08 03:13:55;;;;;;;13.63;5.97;;;;;;;;;;5079128;28;20119;-57
2021/10/08 03:16:23;;;;;;;17.83;6.88;;;;;;;;;;5088073;28;20099;-57
2021/10/08 03:18:50;;;;;;;15.23;7.00;;;;;;;;;;5098243;28;20145;-57
2021/10/08 03:21:17;;;;;;;9.02;4.50;;;;;;;;;;5076854;28;20496;-57
2021/10/08 03:23:44;;;;;;;13.95;5.45;;;;;;;;;;5076634;28;20051;-57
2021/10/08 03:26:10;;;;;;;11.68;5.38;;;;;;;;;;5087464;28;20080;-57
2021/10/08 03:28:37;;;;;;;13.73;6.68;;;;;;;;;;5074457;28;20559;-57
2021/10/08 03:31:04;;;;;;;13.10;5.70;;;;;;;;;;5076023;28;20072;-57
2021/10/08 03:33:31;;;;;;;13.80;6.25;;;;;;;;;;5081675;28;20055;-57
2021/10/08 03:35:58;;;;;;;21.45;5.70;;;;;;;;;;5083164;28;20046;-57
2021/10/08 03:38:24;;;;;;;13.70;7.13;;;;;;;;;;5088678;28;20143;-57
2021/10/08 03:43:26;;;;;;;15.23;6.35;;;;;;;;;;5088185;28;20097;-57
2021/10/08 03:45:54;;;;;;;9.30;5.00;;;;;;;;;;5092905;28;20072;-57
2021/10/08 03:48:38;;;;;;;12.75;5.80;;;;;;;;;;5077025;28;20056;-56
2021/10/08 03:51:05;;;;;;;11.50;5.88;;;;;;;;;;5076660;28;20087;-57
2021/10/08 03:53:32;;;;;;;7.65;4.68;;;;;;;;;;5087092;28;20036;-57
2021/10/08 03:55:58;;;;;;;12.57;6.28;;;;;;;;;;5085477;28;20056;-57
2021/10/08 03:58:24;;;;;;;18.73;5.18;;;;;;;;;;5075824;28;20092;-57
2021/10/08 04:00:51;;;;;;;10.00;4.60;;;;;;;;;;5081492;28;20068;-57
2021/10/08 04:03:19;;;;;;;12.15;5.40;;;;;;;;;;5076471;28;20072;-57
2021/10/08 04:05:45;;;;;;;15.75;5.20;;;;;;;;;;5076221;28;20389;-57
2021/10/08 04:08:14;;;;;;;12.35;4.85;;;;;;;;;;5074361;28;20045;-58
2021/10/08 04:10:47;;;;;;;9.98;5.10;;;;;;;;;;5076863;28;20492;-57
2021/10/08 04:13:14;;;;;;;23.50;5.68;;;;;;;;;;5071682;28;20053;-57
2021/10/08 04:15:41;;;;;;;17.42;5.55;;;;;;;;;;5080747;28;20122;-57
2021/10/08 04:18:08;;;;;;;9.60;4.82;;;;;;;;;;5081966;28;20449;-57
2021/10/08 04:20:34;;;;;;;11.57;5.65;;;;;;;;;;5076161;28;20039;-57
2021/10/08 04:23:01;;;;;;;12.50;5.18;;;;;;;;;;5072052;28;20047;-57
2021/10/08 04:25:28;;;;;;;10.85;5.13;;;;;;;;;;5089720;28;20149;-57
2021/10/08 04:27:56;;;;;;;10.35;4.70;;;;;;;;;;5078175;28;20089;-57
2021/10/08 04:30:23;;;;;;;9.70;4.22;;;;;;;;;;5082375;28;20113;-57
2021/10/08 04:32:50;;;;;;;10.48;6.03;;;;;;;;;;5088735;28;20076;-57
2021/10/08 04:35:16;;;;;;;18.63;5.50;;;;;;;;;;5078003;28;20056;-57
2021/10/08 04:37:43;;;;;;;17.58;5.13;;;;;;;;;;5075803;28;20492;-58
2021/10/08 04:40:12;;;;;;;12.77;5.45;;;;;;;;;;5088660;28;20072;-57
2021/10/08 04:42:39;;;;;;;14.90;5.72;;;;;;;;;;5086297;28;20044;-58
2021/10/08 04:45:08;;;;;;;14.90;5.28;;;;;;;;;;5085356;28;20056;-57
2021/10/08 04:47:35;;;;;;;11.93;5.13;;;;;;;;;;5075323;28;20094;-56
2021/10/08 04:50:04;;;;;;;11.15;4.90;;;;;;;;;;5091158;28;20044;-57
2021/10/08 04:52:34;;;;;;;13.00;4.93;;;;;;;;;;5073462;28;20080;-57
2021/10/08 04:55:01;;;;;;;10.70;5.15;;;;;;;;;;5091352;28;20090;-57
2021/10/08 04:57:27;;;;;;;11.30;5.75;;;;;;;;;;5085810;28;20055;-57
2021/10/08 04:59:54;;;;;;;11.13;4.82;;;;;;;;;;5086269;28;20044;-57
2021/10/08 05:02:20;;;;;;;14.23;6.30;;;;;;;;;;5092994;28;20742;-57
2021/10/08 05:04:47;;;;;;;18.13;6.60;;;;;;;;;;5077317;28;20144;-57
2021/10/08 05:07:14;;;;;;;15.57;6.53;;;;;;;;;;5069254;28;20040;-57
2021/10/08 05:09:42;;;;;;;11.05;5.55;;;;;;;;;;5081389;28;20511;-56
2021/10/08 05:12:08;;;;;;;13.57;5.63;;;;;;;;;;5079942;28;20044;-58
2021/10/08 05:14:35;;;;;;;16.90;5.60;;;;;;;;;;5082700;28;20052;-57
2021/10/08 05:17:02;;;;;;;17.73;5.90;;;;;;;;;;5076184;28;20491;-57
2021/10/08 05:19:29;;;;;;;16.33;7.03;;;;;;;;;;5076370;28;20072;-56
2021/10/08 05:22:05;;;;;;;15.82;6.60;;;;;;;;;;5086933;28;20075;-57
2021/10/08 05:24:32;;;;;;;14.23;5.85;;;;;;;;;;5089522;28;20040;-57
2021/10/08 05:26:59;;;;;;;13.52;6.53;;;;;;;;;;5085391;28;20123;-57
2021/10/08 05:29:27;;;;;;;16.17;6.60;;;;;;;;;;5081643;28;20049;-57
2021/10/08 05:31:53;;;;;;;11.00;6.32;;;;;;;;;;5076517;28;20048;-57
2021/10/08 05:34:20;;;;;;;15.45;7.03;;;;;;;;;;5087374;28;20128;-57
2021/10/08 05:36:51;;;;;;;17.95;6.38;;;;;;;;;;5087963;28;20457;-58
2021/10/08 05:39:20;;;;;;;11.52;5.93;;;;;;;;;;5067716;28;20059;-57
2021/10/08 05:41:46;;;;;;;17.38;6.30;;;;;;;;;;5078086;28;20042;-57
2021/10/08 05:44:13;;;;;;;18.38;7.35;;;;;;;;;;5072764;28;20102;-57
2021/10/08 05:46:39;;;;;;;12.40;5.53;;;;;;;;;;5074308;28;20472;-57
2021/10/08 05:49:06;;;;;;;14.65;7.10;;;;;;;;;;5079896;28;20128;-57
2021/10/08 05:51:33;;;;;;;19.17;7.97;;;;;;;;;;5081402;28;20110;-57
2021/10/08 05:54:00;;;;;;;17.02;6.22;;;;;;;;;;5082616;28;20037;-58
2021/10/08 05:56:26;;;;;;;25.80;7.07;;;;;;;;;;5086325;28;20036;-57
2021/10/08 05:58:53;;;;;;;16.85;7.10;;;;;;;;;;5088491;28;20080;-57
2021/10/08 06:01:20;;;;;;;23.30;8.85;;;;;;;;;;5076571;28;20083;-57
2021/10/08 06:03:46;;;;;;;34.65;11.55;;;;;;;;;;5088008;28;20043;-57
2021/10/08 06:06:12;;;;;;;44.55;14.20;;;;;;;;;;5084701;28;20072;-59
2021/10/08 06:08:39;;;;;;;38.20;12.60;;;;;;;;;;5083806;28;20071;-57
2021/10/08 06:11:05;;;;;;;37.83;12.45;;;;;;;;;;5085805;28;20048;-57
2021/10/08 06:13:34;;;;;;;25.02;9.77;;;;;;;;;;5076778;28;20581;-57
2021/10/08 06:16:00;;;;;;;20.30;7.95;;;;;;;;;;5085485;28;20052;-58
2021/10/08 06:18:28;;;;;;;10.30;5.13;;;;;;;;;;5085267;28;20068;-57
2021/10/08 06:20:55;;;;;;;13.25;5.47;;;;;;;;;;5084497;28;20121;-58
2021/10/08 06:23:23;;;;;;;14.18;6.05;;;;;;;;;;5086615;28;20040;-57
2021/10/08 06:25:50;;;;;;;17.48;5.68;;;;;;;;;;5072721;28;20385;-58
2021/10/08 06:28:16;;;;;;;19.98;6.93;;;;;;;;;;5089189;28;20051;-57
2021/10/08 06:30:43;;;;;;;16.33;5.47;;;;;;;;;;5083437;28;20044;-56
2021/10/08 06:33:10;;;;;;;12.95;5.78;;;;;;;;;;5084195;28;20044;-57
2021/10/08 06:35:38;;;;;;;13.65;6.47;;;;;;;;;;5083778;28;20076;-58
2021/10/08 06:38:05;;;;;;;15.95;6.85;;;;;;;;;;5085070;28;20070;-58
2021/10/08 06:40:33;;;;;;;19.13;7.25;;;;;;;;;;5073227;28;20049;-57
2021/10/08 06:43:04;;;;;;;14.73;6.35;;;;;;;;;;5072279;28;20044;-58
2021/10/08 06:45:41;;;;;;;11.85;5.22;;;;;;;;;;5073913;28;20049;-57
2021/10/08 06:48:10;;;;;;;16.80;5.80;;;;;;;;;;5074024;28;20148;-58
2021/10/08 06:50:39;;;;;;;17.50;6.47;;;;;;;;;;5077452;28;20045;-57
2021/10/08 06:53:05;;;;;;;16.40;5.80;;;;;;;;;;5105704;27;20040;-57
2021/10/08 06:55:34;;;;;;;14.68;5.45;;;;;;;;;;5079248;28;20064;-58
2021/10/08 06:58:01;;;;;;;13.18;4.68;;;;;;;;;;5086682;28;20080;-58
2021/10/08 07:00:27;;;;;;;8.68;4.50;;;;;;;;;;5088533;28;20048;-57
2021/10/08 07:02:55;;;;;;;17.20;5.32;;;;;;;;;;5084904;28;20072;-57
2021/10/08 07:05:26;;;;;;;28.38;6.70;;;;;;;;;;5088509;28;20036;-58
2021/10/08 07:07:54;;;;;;;19.05;6.35;;;;;;;;;;5087083;28;20044;-56
2021/10/08 07:10:23;;;;;;;11.20;5.43;;;;;;;;;;5082336;28;20094;-56
2021/10/08 07:12:49;;;;;;;11.73;4.95;;;;;;;;;;5082301;28;20059;-55
2021/10/08 07:15:19;;;;;;;10.07;5.25;;;;;;;;;;5081882;28;20052;-57
2021/10/08 07:17:48;;;;;;;10.55;5.65;;;;;;;;;;5083669;28;20071;-56
2021/10/08 07:20:15;;;;;;;13.00;5.15;;;;;;;;;;5086364;28;20045;-57
2021/10/08 07:22:42;;;;;;;16.25;5.65;;;;;;;;;;5082735;28;20125;-57
2021/10/08 07:25:09;;;;;;;14.57;5.40;;;;;;;;;;5083194;28;20117;-56
2021/10/08 07:27:36;;;;;;;13.40;5.55;;;;;;;;;;5083840;28;20044;-55
2021/10/08 07:30:03;;;;;;;18.90;5.68;;;;;;;;;;5083040;28;20049;-55
2021/10/08 07:32:30;;;;;;;11.80;4.80;;;;;;;;;;5086071;28;20139;-55
2021/10/08 07:34:56;;;;;;;15.45;6.20;;;;;;;;;;5083172;28;20040;-56
2021/10/08 07:37:23;;;;;;;14.48;6.35;;;;;;;;;;5085931;28;20048;-56
2021/10/08 07:39:50;;;;;;;12.35;5.28;;;;;;;;;;5084006;28;20052;-55
2021/10/08 07:42:16;;;;;;;10.75;4.57;;;;;;;;;;5083670;28;20052;-56
2021/10/08 07:44:42;;;;;;;14.45;5.60;;;;;;;;;;5085650;28;20047;-56
2021/10/08 07:47:09;;;;;;;17.55;5.03;;;;;;;;;;5082700;28;20084;-57
2021/10/08 07:49:35;;;;;;;14.25;4.55;;;;;;;;;;5083459;28;20051;-57
2021/10/08 07:52:02;;;;;;;11.52;5.03;;;;;;;;;;5085581;28;20048;-57
2021/10/08 07:54:28;;;;;;;11.73;4.95;;;;;;;;;;5083641;28;20500;-57
2021/10/08 07:56:55;;;;;;;11.73;5.43;;;;;;;;;;5083755;28;20170;-57
2021/10/08 07:59:21;;;;;;;15.38;5.75;;;;;;;;;;5083835;28;20048;-58
2021/10/08 08:01:47;;;;;;;8.90;4.85;;;;;;;;;;5083253;28;20056;-57
2021/10/08 08:04:14;;;;;;;14.88;6.13;;;;;;;;;;5088627;28;20059;-58
2021/10/08 08:06:40;;;;;;;18.60;5.28;;;;;;;;;;5085159;28;20042;-57
2021/10/08 08:09:06;;;;;;;15.07;6.88;;;;;;;;;;5081439;28;20091;-58
2021/10/08 08:11:33;;;;;;;15.75;5.68;;;;;;;;;;5088911;28;20036;-58
2021/10/08 08:14:00;;;;;;;13.02;5.70;;;;;;;;;;5072926;28;20455;-58
2021/10/08 08:16:27;;;;;;;11.25;4.78;;;;;;;;;;5086092;28;20083;-58
2021/10/08 08:18:53;;;;;;;15.82;5.45;;;;;;;;;;5087740;28;20044;-58
2021/10/08 08:21:21;;;;;;;14.70;5.55;;;;;;;;;;5082751;28;20048;-58
2021/10/08 08:23:47;;;;;;;19.23;5.72;;;;;;;;;;5078997;28;20080;-58
2021/10/08 08:26:13;;;;;;;15.13;5.28;;;;;;;;;;5077461;28;20056;-58
2021/10/08 08:28:39;;;;;;;13.77;5.35;;;;;;;;;;5075415;28;20052;-58
2021/10/08 08:31:06;;;;;;;22.83;5.78;;;;;;;;;;5075560;28;20515;-58
2021/10/08 08:33:35;;;;;;;13.52;5.10;;;;;;;;;;5077544;28;20048;-58
2021/10/08 08:36:02;;;;;;;18.00;6.00;;;;;;;;;;5077357;28;20416;-58
2021/10/08 08:38:29;;;;;;;11.40;5.15;;;;;;;;;;5077505;28;20082;-59
2021/10/08 08:40:55;;;;;;;17.38;5.55;;;;;;;;;;5078923;28;20043;-58
2021/10/08 08:43:21;;;;;;;27.48;5.85;;;;;;;;;;5085597;28;20567;-58
2021/10/08 08:45:48;;;;;;;12.82;5.28;;;;;;;;;;5078745;28;20095;-58
2021/10/08 08:48:14;;;;;;;16.77;5.78;;;;;;;;;;5079084;28;20135;-58
2021/10/08 08:50:44;;;;;;;20.52;6.15;;;;;;;;;;5079102;28;20044;-59
2021/10/08 08:53:11;;;;;;;22.38;6.40;;;;;;;;;;5076319;28;20500;-58
2021/10/08 08:55:38;;;;;;;18.88;6.30;;;;;;;;;;5076970;28;20395;-59
2021/10/08 08:58:04;;;;;;;18.27;6.60;;;;;;;;;;5086573;28;20496;-59
2021/10/08 09:00:30;;;;;;;25.27;5.85;;;;;;;;;;5087694;28;20470;-58
2021/10/08 09:02:58;;;;;;;9.57;5.07;;;;;;;;;;5086765;28;20132;-58
2021/10/08 09:05:26;;;;;;;15.63;6.25;;;;;;;;;;5078269;28;20115;-59
2021/10/08 09:07:59;;;;;;;18.95;5.70;;;;;;;;;;5075230;28;20115;-58
2021/10/08 09:10:28;;;;;;;20.70;6.45;;;;;;;;;;5090553;28;20054;-59
2021/10/08 09:12:56;;;;;;;10.50;5.30;;;;;;;;;;5073301;28;20420;-59
2021/10/08 09:15:22;;;;;;;15.65;6.45;;;;;;;;;;5072103;28;20057;-59
2021/10/08 09:17:49;;;;;;;13.65;6.47;;;;;;;;;;5072868;28;20041;-59
2021/10/08 09:20:17;;;;;;;19.90;6.55;;;;;;;;;;5076765;28;20565;-59
2021/10/08 09:22:46;;;;;;;17.52;7.13;;;;;;;;;;5075650;28;20072;-59
2021/10/08 09:25:34;;;;;;;15.15;6.38;;;;;;;;;;5089680;28;20071;-59
2021/10/08 09:28:02;;;;;;;16.35;6.70;;;;;;;;;;5088758;28;20576;-60
2021/10/08 09:30:51;;;;;;;12.82;6.35;;;;;;;;;;5081924;28;20044;-60
2021/10/08 09:33:19;;;;;;;16.02;7.20;;;;;;;;;;5078292;28;20048;-59
2021/10/08 09:35:47;;;;;;;17.00;6.65;;;;;;;;;;5078431;28;20044;-60
2021/10/08 09:38:15;;;;;;;17.92;7.03;;;;;;;;;;5075191;28;20221;-59
2021/10/08 09:40:47;;;;;;;13.38;6.55;;;;;;;;;;5083939;28;20495;-60
2021/10/08 09:43:33;;;;;;;17.90;8.35;;;;;;;;;;5078394;28;20116;-59
2021/10/08 09:46:04;;;;;;;14.77;6.65;;;;;;;;;;5088782;28;20452;-59
2021/10/08 09:48:41;;;;;;;15.75;7.32;;;;;;;;;;5086668;28;20040;-59
2021/10/08 09:51:21;;;;;;;16.60;8.27;;;;;;;;;;5084560;28;20102;-60
2021/10/08 09:53:47;;;;;;;15.07;5.70;;;;;;;;;;5077915;28;20514;-59
2021/10/08 09:56:32;;;;;;;15.45;6.88;;;;;;;;;;5076037;28;20098;-59
2021/10/08 09:58:59;;;;;;;15.95;6.78;;;;;;;;;;5073693;28;20058;-59
2021/10/08 10:01:27;;;;;;;15.82;7.05;;;;;;;;;;5077599;28;20044;-59
2021/10/08 10:03:53;;;;;;;19.10;6.88;;;;;;;;;;5085951;28;20091;-60
2021/10/08 10:06:21;;;;;;;14.18;6.55;;;;;;;;;;5083530;28;20506;-59
2021/10/08 10:08:47;;;;;;;15.38;6.75;;;;;;;;;;5087300;28;20153;-59
2021/10/08 10:11:18;;;;;;;15.00;6.40;;;;;;;;;;5087182;28;20072;-60
2021/10/08 10:13:49;;;;;;;18.50;7.18;;;;;;;;;;5075206;28;20075;-60
2021/10/08 10:16:16;;;;;;;20.20;6.65;;;;;;;;;;5077358;28;20080;-60
2021/10/08 10:18:42;;;;;;;15.07;6.28;;;;;;;;;;5078182;28;20052;-60
2021/10/08 10:21:09;;;;;;;19.90;6.47;;;;;;;;;;5077899;28;20046;-60
2021/10/08 10:23:36;;;;;;;13.23;7.20;;;;;;;;;;5077647;28;20542;-60
2021/10/08 10:26:03;;;;;;;14.35;6.63;;;;;;;;;;5074318;28;20047;-60
2021/10/08 10:28:29;;;;;;;14.48;6.75;;;;;;;;;;5076400;28;20053;-60
2021/10/08 10:30:56;;;;;;;12.65;7.45;;;;;;;;;;5078099;28;20068;-60
2021/10/08 10:33:27;;;;;;;13.02;6.72;;;;;;;;;;5077706;28;20075;-60
2021/10/08 10:35:56;;;;;;;20.58;7.85;;;;;;;;;;5078032;28;20045;-60
2021/10/08 10:38:22;;;;;;;15.73;8.00;;;;;;;;;;5077007;28;20141;-60
2021/10/08 10:41:03;;;;;;;17.55;6.80;;;;;;;;;;5084663;28;20075;-60
2021/10/08 10:43:32;;;;;;;13.35;6.25;;;;;;;;;;5088743;28;20084;-60
2021/10/08 10:46:17;;;;;;;10.90;6.38;;;;;;;;;;5087351;28;20044;-60
2021/10/08 10:49:09;;;;;;;19.40;6.25;;;;;;;;;;5078772;28;20094;-59
2021/10/08 10:51:36;;;;;;;19.55;6.13;;;;;;;;;;5077624;28;20045;-60
2021/10/08 10:54:02;;;;;;;12.40;6.70;;;;;;;;;;5077318;28;20102;-61
2021/10/08 10:56:37;;;;;;;21.15;6.78;;;;;;;;;;5077537;28;20123;-60
2021/10/08 10:59:22;;;;;;;13.48;5.43;;;;;;;;;;5073905;28;20048;-60
2021/10/08 11:02:11;;;;;;;11.95;6.25;;;;;;;;;;5073531;28;20040;-60
2021/10/08 11:04:39;;;;;;;9.15;5.03;;;;;;;;;;5082577;28;20141;-60
2021/10/08 11:07:08;;;;;;;13.68;5.85;;;;;;;;;;5080791;28;20399;-61
2021/10/08 11:09:35;;;;;;;11.38;5.40;;;;;;;;;;5080060;28;20397;-61
2021/10/08 11:12:21;;;;;;;12.27;5.97;;;;;;;;;;5077469;28;20084;-61
2021/10/08 11:14:47;;;;;;;13.88;5.55;;;;;;;;;;5076639;28;20094;-61
2021/10/08 11:17:32;;;;;;;17.83;6.30;;;;;;;;;;5074946;28;20087;-61
2021/10/08 11:19:58;;;;;;;13.20;5.72;;;;;;;;;;5074565;28;20127;-61
2021/10/08 11:22:44;;;;;;;14.93;5.03;;;;;;;;;;5088251;28;20087;-61
2021/10/08 11:25:12;;;;;;;10.38;4.82;;;;;;;;;;5076911;28;20196;-61
2021/10/08 11:27:39;;;;;;;13.43;5.30;;;;;;;;;;5076853;28;20083;-61
2021/10/08 11:30:06;;;;;;;11.38;5.07;;;;;;;;;;5076702;28;20090;-62
2021/10/08 11:32:34;;;;;;;12.75;5.20;;;;;;;;;;5077115;28;20036;-60
2021/10/08 11:35:01;;;;;;;20.08;5.30;;;;;;;;;;5072708;28;20048;-62
2021/10/08 11:37:30;;;;;;;12.30;5.40;;;;;;;;;;5081985;28;20063;-61
2021/10/08 11:39:57;;;;;;;13.13;4.90;;;;;;;;;;5077182;28;20072;-61
2021/10/08 11:42:25;;;;;;;12.10;5.32;;;;;;;;;;5076901;28;20095;-61
2021/10/08 11:47:33;;;;;;;13.30;5.40;;;;;;;;;;5075424;28;20040;-62
2021/10/08 11:52:43;;;;;;;20.92;5.72;;;;;;;;;;5074160;28;20041;-61
2021/10/08 11:55:17;;;;;;;15.45;6.03;;;;;;;;;;5076345;28;20052;-62
2021/10/08 11:58:10;;;;;;;10.10;4.97;;;;;;;;;;5076568;28;20052;-61
2021/10/08 12:00:36;;;;;;;10.15;4.93;;;;;;;;;;5076900;28;20052;-61
2021/10/08 12:03:07;;;;;;;12.95;4.80;;;;;;;;;;5083699;28;20488;-61
2021/10/08 12:05:40;;;;;;;14.65;5.03;;;;;;;;;;5076517;28;20111;-62
2021/10/08 12:08:07;;;;;;;18.33;5.38;;;;;;;;;;5082738;28;20121;-62
2021/10/08 12:10:39;;;;;;;12.35;5.20;;;;;;;;;;5074405;28;20178;-61
2021/10/08 12:13:06;;;;;;;8.70;5.47;;;;;;;;;;5076011;28;20640;-62
2021/10/08 12:15:33;;;;;;;15.00;5.00;;;;;;;;;;5076445;28;20191;-62
2021/10/08 12:18:01;;;;;;;10.98;4.93;;;;;;;;;;5076667;28;20044;-61
2021/10/08 12:20:29;;;;;;;10.07;5.05;;;;;;;;;;5076140;28;20039;-62
2021/10/08 12:23:13;;;;;;;13.52;5.22;;;;;;;;;;5072319;28;20519;-62
2021/10/08 12:25:41;;;;;;;18.25;5.72;;;;;;;;;;5088420;28;20051;-62
2021/10/08 12:28:09;;;;;;;9.00;5.13;;;;;;;;;;5075788;28;20076;-60
2021/10/08 12:30:49;;;;;;;12.40;5.40;;;;;;;;;;5075598;28;20059;-62
2021/10/08 12:33:23;;;;;;;12.30;4.60;;;;;;;;;;5076299;28;20080;-62
2021/10/08 12:36:08;;;;;;;7.80;4.28;;;;;;;;;;5076373;28;20071;-62
2021/10/08 12:38:53;;;;;;;8.18;4.63;;;;;;;;;;5083084;28;20520;-62
2021/10/08 12:41:37;;;;;;;13.13;4.35;;;;;;;;;;5088047;28;20040;-62
2021/10/08 12:44:03;;;;;;;11.30;5.00;;;;;;;;;;5072825;28;20083;-62
2021/10/08 12:46:34;;;;;;;10.93;4.47;;;;;;;;;;5074850;28;20045;-62
2021/10/08 12:49:01;;;;;;;12.20;4.43;;;;;;;;;;5088466;28;20514;-62
2021/10/08 12:51:27;;;;;;;7.28;3.53;;;;;;;;;;5083329;28;20504;-62
2021/10/08 12:54:13;;;;;;;17.38;5.80;;;;;;;;;;5079770;28;20072;-62
2021/10/08 12:56:40;;;;;;;10.10;4.40;;;;;;;;;;5079669;28;20072;-62
2021/10/08 12:59:06;;;;;;;8.50;4.82;;;;;;;;;;5076582;28;20040;-61
2021/10/08 13:01:32;;;;;;;8.40;4.63;;;;;;;;;;5077904;28;20548;-62
2021/10/08 13:04:16;;;;;;;20.08;5.40;;;;;;;;;;5080445;28;20468;-62
2021/10/08 13:06:42;;;;;;;9.32;4.35;;;;;;;;;;5084547;28;20384;-61
2021/10/08 13:09:21;;;;;;;14.70;4.97;;;;;;;;;;5086058;28;20455;-62
2021/10/08 13:11:49;;;;;;;8.25;4.35;;;;;;;;;;5079402;28;20064;-62
2021/10/08 13:14:20;;;;;;;10.50;4.85;;;;;;;;;;5077211;28;20466;-62
2021/10/08 13:16:46;;;;;;;9.93;5.18;;;;;;;;;;5076215;28;20041;-62
2021/10/08 13:19:28;;;;;;;9.93;5.25;;;;;;;;;;5090483;28;20516;-62
2021/10/08 13:21:55;;;;;;;10.02;5.22;;;;;;;;;;5088787;28;20072;-62
2021/10/08 13:24:21;;;;;;;5.90;3.50;;;;;;;;;;5083854;28;20515;-62
2021/10/08 13:26:47;;;;;;;12.55;4.03;;;;;;;;;;5079014;28;20040;-62
2021/10/08 13:29:14;;;;;;;13.88;4.88;;;;;;;;;;5077122;28;20072;-62
2021/10/08 13:31:40;;;;;;;12.20;4.25;;;;;;;;;;5074988;28;20086;-62
2021/10/08 13:34:06;;;;;;;9.80;4.93;;;;;;;;;;5078622;28;20408;-62
2021/10/08 13:36:33;;;;;;;10.50;4.78;;;;;;;;;;5082253;28;20090;-62
2021/10/08 13:38:59;;;;;;;12.48;4.65;;;;;;;;;;5085875;28;20051;-62
2021/10/08 13:41:25;;;;;;;13.18;4.10;;;;;;;;;;5076004;28;20070;-62
2021/10/08 13:43:52;;;;;;;13.65;4.68;;;;;;;;;;5073335;28;20067;-61
2021/10/08 13:46:18;;;;;;;9.63;4.43;;;;;;;;;;5078361;28;20044;-62
2021/10/08 13:48:44;;;;;;;6.82;4.03;;;;;;;;;;5078554;28;20105;-62
2021/10/08 13:51:11;;;;;;;11.55;3.58;;;;;;;;;;5078834;28;20468;-61
2021/10/08 13:53:38;;;;;;;7.30;3.40;;;;;;;;;;5078205;28;20407;-62
2021/10/08 13:56:04;;;;;;;8.30;3.92;;;;;;;;;;5074990;28;20044;-62
2021/10/08 13:58:30;;;;;;;13.27;3.20;;;;;;;;;;5076629;28;20087;-61
2021/10/08 14:00:57;;;;;;;10.18;3.30;;;;;;;;;;5078204;28;20049;-61
2021/10/08 14:03:41;;;;;;;8.30;3.47;;;;;;;;;;5078358;28;20402;-61
2021/10/08 14:11:12;;;;;;;10.18;4.22;;;;;;;;;;5075843;28;20079;-62
2021/10/08 14:13:38;;;;;;;8.93;4.10;;;;;;;;;;5075821;28;20482;-62
2021/10/08 14:16:05;;;;;;;10.27;3.58;;;;;;;;;;5078203;28;20581;-62
2021/10/08 14:18:31;;;;;;;8.68;3.38;;;;;;;;;;5078373;28;20072;-61
2021/10/08 14:20:58;;;;;;;15.32;3.70;;;;;;;;;;5077210;28;20487;-62
2021/10/08 14:23:28;;;;;;;12.85;3.60;;;;;;;;;;5076986;28;20600;-61
2021/10/08 14:25:54;;;;;;;10.27;3.35;;;;;;;;;;5073965;28;20535;-61
2021/10/08 14:28:24;;;;;;;10.27;3.35;;;;;;;;;;5076694;28;20060;-60
2021/10/08 14:30:51;;;;;;;8.80;4.25;;;;;;;;;;5086612;28;20044;-60
2021/10/08 14:33:18;;;;;;;9.15;5.35;;;;;;;;;;5082589;28;20074;-60
2021/10/08 14:35:44;;;;;;;14.23;3.88;;;;;;;;;;5081769;28;20443;-61
2021/10/08 14:38:10;;;;;;;13.18;4.57;;;;;;;;;;5090601;28;20040;-61
2021/10/08 14:40:39;;;;;;;8.75;4.57;;;;;;;;;;5091948;28;20080;-60
2021/10/08 14:43:05;;;;;;;14.73;3.72;;;;;;;;;;5093040;28;20052;-61
2021/10/08 14:45:31;;;;;;;6.43;3.33;;;;;;;;;;5091182;28;20044;-60
2021/10/08 14:47:58;;;;;;;8.95;3.42;;;;;;;;;;5090728;28;20411;-58
2021/10/08 14:50:25;;;;;;;14.93;3.72;;;;;;;;;;5091288;28;20044;-59
2021/10/08 14:52:51;;;;;;;5.38;3.35;;;;;;;;;;5089694;28;20046;-61